Terminal Aerodrome Forecast
Issued by NWS

Home | Current Version | Previous Version | Text Only | Print | Product List | Glossary On
Versions: 1 2 3 4 5 6 7 8 9 10 11 12 13 14 15 16 17 18 19 20 21 22 23 24 25
000
FTUS43 KLOT 280526
TAFDPA
TAF
KDPA 280526Z 2806/2906 17010KT P6SM FEW070 SCT100 BKN150
     FM281500 20014G20KT P6SM SCT040 BKN250
     FM290200 19011KT P6SM SCT040 BKN250 PROB30 2902/2906 4SM -TSRA
      BKN030CB=

USA.gov is the U.S. government's official web portal to all federal, state and local government web resources and services.